Skip Navigation Links Skip Navigation Links

Current Weather

Santacruz Apt, Mumbai (Bombay), India

For information only: do not use for flight planning or navigation.
Latest weather
Observation time Wednesday, October 27, 2021 12:00 PM IST
Local time Wednesday, October 27, 2021 12:25 PM IST
Flight conditions Instrument Meteorological Conditions
Winds
Wind direction East-Southeast (110°)
Wind speed 7 mph
Visibility 1.9 mi.
Present weather smoke
Sky condition
Ceiling unlimited
Temperature 93°F
Dewpoint 61°F
Altimeter 29.88 in.Hg
Derived measurements
Relative humidity 34%
Heat index 93°F
Density altitude 2499 ft.
Remarks
No significant changes expected in the next two hours.
METAR VABB 270630Z 11006KT 3000 FU NSC 34/16 Q1012 NOSIG

Settings

Location code

InnerDrive.Weather 4.0.6770.0 Release CLR 4.0.30319.42000
Copyright ©2018 Inner Drive Technology. All rights reserved. Portions Copyright ©1986-2018 David Braverman.

Find weather

Site navigation


Skip Navigation Links

Place info

Page info

PayPal - The safer, easier way to pay online!

Return home.

Copyright ©2021 Inner Drive Technology. Purveyors of fine, hand-crafted computer software. Page printed 2021-10-27T06:55:15 UTC.